Aviation

FTHA31 MTPP 291700
TAF MTPP 291700Z 2918/3018 10012KT 9999 SCT028TCU
BECMG 2918/2922 27010KT 9999 FEW022CB SCT028
PROB40 TEMPO 3000/3004 09010KT 4500 SHRA SCT022CB BKN040
BECMG 3006/3010 VRB02KT 9000 FEW020
BECMG 3013/3017 09010KT=